sensor_id;sensor_type;location;lat;lon;timestamp;P1;durP1;ratioP1;P2;durP2;ratioP2
31442;SDS011;18065;55.876;9.830;2023-07-31T00:02:25;3.30;;;1.08;;
31442;SDS011;18065;55.876;9.830;2023-07-31T00:04:53;4.03;;;1.25;;
31442;SDS011;18065;55.876;9.830;2023-07-31T00:07:25;3.38;;;1.08;;
31442;SDS011;18065;55.876;9.830;2023-07-31T00:09:53;4.03;;;1.23;;
31442;SDS011;18065;55.876;9.830;2023-07-31T00:12:22;3.20;;;1.00;;
31442;SDS011;18065;55.876;9.830;2023-07-31T00:14:51;2.60;;;1.40;;
31442;SDS011;18065;55.876;9.830;2023-07-31T00:17:19;2.90;;;1.00;;
31442;SDS011;18065;55.876;9.830;2023-07-31T00:19:48;3.92;;;1.23;;
31442;SDS011;18065;55.876;9.830;2023-07-31T00:22:17;2.53;;;0.85;;
31442;SDS011;18065;55.876;9.830;2023-07-31T00:24:48;3.92;;;1.20;;
31442;SDS011;18065;55.876;9.830;2023-07-31T00:27:17;3.10;;;1.15;;
31442;SDS011;18065;55.876;9.830;2023-07-31T00:29:46;3.05;;;1.08;;
31442;SDS011;18065;55.876;9.830;2023-07-31T00:32:14;2.47;;;0.90;;
31442;SDS011;18065;55.876;9.830;2023-07-31T00:34:43;2.80;;;1.20;;
31442;SDS011;18065;55.876;9.830;2023-07-31T00:37:12;4.85;;;1.30;;
31442;SDS011;18065;55.876;9.830;2023-07-31T00:39:40;3.83;;;1.20;;
31442;SDS011;18065;55.876;9.830;2023-07-31T00:42:12;4.28;;;1.10;;
31442;SDS011;18065;55.876;9.830;2023-07-31T00:44:41;2.55;;;1.38;;
31442;SDS011;18065;55.876;9.830;2023-07-31T00:47:09;4.60;;;1.45;;
31442;SDS011;18065;55.876;9.830;2023-07-31T00:49:38;6.20;;;1.25;;
31442;SDS011;18065;55.876;9.830;2023-07-31T00:52:08;5.40;;;1.15;;
31442;SDS011;18065;55.876;9.830;2023-07-31T00:54:38;5.22;;;1.10;;
31442;SDS011;18065;55.876;9.830;2023-07-31T00:57:07;4.93;;;1.20;;
31442;SDS011;18065;55.876;9.830;2023-07-31T00:59:38;3.95;;;1.25;;
31442;SDS011;18065;55.876;9.830;2023-07-31T01:02:07;3.42;;;1.35;;
31442;SDS011;18065;55.876;9.830;2023-07-31T01:04:36;2.83;;;0.93;;
31442;SDS011;18065;55.876;9.830;2023-07-31T01:07:06;4.32;;;1.40;;
31442;SDS011;18065;55.876;9.830;2023-07-31T01:09:42;3.97;;;1.15;;
31442;SDS011;18065;55.876;9.830;2023-07-31T01:12:15;4.25;;;1.40;;
31442;SDS011;18065;55.876;9.830;2023-07-31T01:14:54;4.93;;;1.30;;
31442;SDS011;18065;55.876;9.830;2023-07-31T01:17:30;2.63;;;1.30;;
31442;SDS011;18065;55.876;9.830;2023-07-31T01:20:01;3.67;;;1.23;;
31442;SDS011;18065;55.876;9.830;2023-07-31T01:22:34;5.20;;;1.42;;
31442;SDS011;18065;55.876;9.830;2023-07-31T01:25:20;4.53;;;1.50;;
31442;SDS011;18065;55.876;9.830;2023-07-31T01:28:07;5.53;;;1.27;;
31442;SDS011;18065;55.876;9.830;2023-07-31T01:30:40;3.42;;;1.10;;
31442;SDS011;18065;55.876;9.830;2023-07-31T01:33:11;2.63;;;0.98;;
31442;SDS011;18065;55.876;9.830;2023-07-31T01:35:41;4.10;;;1.20;;
31442;SDS011;18065;55.876;9.830;2023-07-31T01:38:12;3.42;;;1.15;;
31442;SDS011;18065;55.876;9.830;2023-07-31T01:40:41;3.33;;;1.15;;
31442;SDS011;18065;55.876;9.830;2023-07-31T01:43:13;4.57;;;1.45;;
31442;SDS011;18065;55.876;9.830;2023-07-31T01:45:41;5.70;;;1.15;;
31442;SDS011;18065;55.876;9.830;2023-07-31T01:48:10;4.88;;;1.30;;
31442;SDS011;18065;55.876;9.830;2023-07-31T01:50:39;4.68;;;1.52;;
31442;SDS011;18065;55.876;9.830;2023-07-31T01:53:07;4.20;;;1.13;;
31442;SDS011;18065;55.876;9.830;2023-07-31T01:55:37;3.22;;;1.05;;
31442;SDS011;18065;55.876;9.830;2023-07-31T01:58:06;5.35;;;1.10;;
31442;SDS011;18065;55.876;9.830;2023-07-31T02:00:37;5.65;;;1.25;;
31442;SDS011;18065;55.876;9.830;2023-07-31T02:03:06;6.85;;;1.33;;
31442;SDS011;18065;55.876;9.830;2023-07-31T02:05:34;6.47;;;1.58;;
31442;SDS011;18065;55.876;9.830;2023-07-31T02:08:03;3.50;;;1.25;;
31442;SDS011;18065;55.876;9.830;2023-07-31T02:10:32;4.70;;;1.33;;
31442;SDS011;18065;55.876;9.830;2023-07-31T02:13:00;7.00;;;1.35;;
31442;SDS011;18065;55.876;9.830;2023-07-31T02:15:29;4.15;;;1.38;;
31442;SDS011;18065;55.876;9.830;2023-07-31T02:18:00;3.30;;;1.25;;
31442;SDS011;18065;55.876;9.830;2023-07-31T02:20:29;3.33;;;1.30;;
31442;SDS011;18065;55.876;9.830;2023-07-31T02:23:01;3.78;;;1.17;;
31442;SDS011;18065;55.876;9.830;2023-07-31T02:25:30;7.85;;;1.50;;
31442;SDS011;18065;55.876;9.830;2023-07-31T02:27:58;4.43;;;1.42;;
31442;SDS011;18065;55.876;9.830;2023-07-31T02:30:27;2.58;;;1.10;;
31442;SDS011;18065;55.876;9.830;2023-07-31T02:32:56;2.15;;;1.08;;
31442;SDS011;18065;55.876;9.830;2023-07-31T02:35:27;4.55;;;1.20;;
31442;SDS011;18065;55.876;9.830;2023-07-31T02:37:56;3.67;;;1.10;;
31442;SDS011;18065;55.876;9.830;2023-07-31T02:40:25;4.80;;;1.27;;
31442;SDS011;18065;55.876;9.830;2023-07-31T02:42:53;4.38;;;1.00;;
31442;SDS011;18065;55.876;9.830;2023-07-31T02:45:22;3.90;;;1.35;;
31442;SDS011;18065;55.876;9.830;2023-07-31T02:47:51;6.03;;;1.00;;
31442;SDS011;18065;55.876;9.830;2023-07-31T02:50:20;4.78;;;1.20;;
31442;SDS011;18065;55.876;9.830;2023-07-31T02:52:51;5.72;;;1.35;;
31442;SDS011;18065;55.876;9.830;2023-07-31T02:55:20;3.72;;;1.10;;
31442;SDS011;18065;55.876;9.830;2023-07-31T02:57:48;2.28;;;0.80;;
31442;SDS011;18065;55.876;9.830;2023-07-31T03:00:18;3.10;;;1.13;;
31442;SDS011;18065;55.876;9.830;2023-07-31T03:02:47;2.78;;;0.90;;
31442;SDS011;18065;55.876;9.830;2023-07-31T03:05:15;2.70;;;1.02;;
31442;SDS011;18065;55.876;9.830;2023-07-31T03:07:44;3.88;;;0.98;;
31442;SDS011;18065;55.876;9.830;2023-07-31T03:10:16;2.65;;;0.93;;
31442;SDS011;18065;55.876;9.830;2023-07-31T03:12:46;5.53;;;1.30;;
31442;SDS011;18065;55.876;9.830;2023-07-31T03:15:15;3.53;;;0.90;;
31442;SDS011;18065;55.876;9.830;2023-07-31T03:17:44;4.03;;;1.25;;
31442;SDS011;18065;55.876;9.830;2023-07-31T03:20:12;5.28;;;1.23;;
31442;SDS011;18065;55.876;9.830;2023-07-31T03:22:41;4.82;;;1.15;;
31442;SDS011;18065;55.876;9.830;2023-07-31T03:25:10;4.57;;;1.38;;
31442;SDS011;18065;55.876;9.830;2023-07-31T03:27:42;4.43;;;1.17;;
31442;SDS011;18065;55.876;9.830;2023-07-31T03:30:11;3.50;;;0.90;;
31442;SDS011;18065;55.876;9.830;2023-07-31T03:32:39;5.63;;;1.50;;
31442;SDS011;18065;55.876;9.830;2023-07-31T03:35:08;3.75;;;1.17;;
31442;SDS011;18065;55.876;9.830;2023-07-31T03:37:37;2.95;;;1.00;;
31442;SDS011;18065;55.876;9.830;2023-07-31T03:40:06;3.40;;;1.50;;
31442;SDS011;18065;55.876;9.830;2023-07-31T03:42:35;2.70;;;1.10;;
31442;SDS011;18065;55.876;9.830;2023-07-31T03:45:08;3.63;;;1.30;;
31442;SDS011;18065;55.876;9.830;2023-07-31T03:47:37;5.57;;;1.40;;
31442;SDS011;18065;55.876;9.830;2023-07-31T03:50:06;3.40;;;1.00;;
31442;SDS011;18065;55.876;9.830;2023-07-31T03:52:35;4.38;;;1.20;;
31442;SDS011;18065;55.876;9.830;2023-07-31T03:55:05;2.20;;;1.05;;
31442;SDS011;18065;55.876;9.830;2023-07-31T03:57:33;1.90;;;1.00;;
31442;SDS011;18065;55.876;9.830;2023-07-31T04:00:02;4.72;;;1.42;;
31442;SDS011;18065;55.876;9.830;2023-07-31T04:02:34;3.75;;;1.00;;
31442;SDS011;18065;55.876;9.830;2023-07-31T04:05:03;4.03;;;1.23;;
31442;SDS011;18065;55.876;9.830;2023-07-31T04:07:32;2.53;;;0.88;;
31442;SDS011;18065;55.876;9.830;2023-07-31T04:10:00;4.28;;;1.00;;
31442;SDS011;18065;55.876;9.830;2023-07-31T04:12:29;3.60;;;0.98;;
31442;SDS011;18065;55.876;9.830;2023-07-31T04:14:58;2.38;;;0.98;;
31442;SDS011;18065;55.876;9.830;2023-07-31T04:17:27;1.80;;;1.00;;
31442;SDS011;18065;55.876;9.830;2023-07-31T04:19:58;5.50;;;1.48;;
31442;SDS011;18065;55.876;9.830;2023-07-31T04:22:27;5.05;;;1.25;;
31442;SDS011;18065;55.876;9.830;2023-07-31T04:24:56;1.83;;;0.80;;
31442;SDS011;18065;55.876;9.830;2023-07-31T04:27:25;3.53;;;0.90;;
31442;SDS011;18065;55.876;9.830;2023-07-31T04:29:53;4.93;;;1.17;;
31442;SDS011;18065;55.876;9.830;2023-07-31T04:32:22;2.47;;;0.90;;
31442;SDS011;18065;55.876;9.830;2023-07-31T04:34:53;4.97;;;0.93;;
31442;SDS011;18065;55.876;9.830;2023-07-31T04:37:25;4.55;;;1.23;;
31442;SDS011;18065;55.876;9.830;2023-07-31T04:39:54;3.13;;;0.88;;
31442;SDS011;18065;55.876;9.830;2023-07-31T04:42:23;2.80;;;1.05;;
31442;SDS011;18065;55.876;9.830;2023-07-31T04:44:52;3.97;;;1.30;;
31442;SDS011;18065;55.876;9.830;2023-07-31T04:47:20;3.70;;;1.00;;
31442;SDS011;18065;55.876;9.830;2023-07-31T04:49:49;5.40;;;1.02;;
31442;SDS011;18065;55.876;9.830;2023-07-31T04:52:18;3.72;;;1.10;;
31442;SDS011;18065;55.876;9.830;2023-07-31T04:54:49;4.32;;;1.20;;
31442;SDS011;18065;55.876;9.830;2023-07-31T04:57:18;5.60;;;1.02;;
31442;SDS011;18065;55.876;9.830;2023-07-31T04:59:46;4.22;;;1.35;;
31442;SDS011;18065;55.876;9.830;2023-07-31T05:02:15;5.28;;;1.30;;
31442;SDS011;18065;55.876;9.830;2023-07-31T05:04:44;3.22;;;1.05;;
31442;SDS011;18065;55.876;9.830;2023-07-31T05:07:13;2.85;;;1.10;;
31442;SDS011;18065;55.876;9.830;2023-07-31T05:09:42;2.03;;;0.95;;
31442;SDS011;18065;55.876;9.830;2023-07-31T05:12:13;2.83;;;1.15;;
31442;SDS011;18065;55.876;9.830;2023-07-31T05:14:42;4.05;;;0.88;;
31442;SDS011;18065;55.876;9.830;2023-07-31T05:17:11;2.60;;;1.02;;
31442;SDS011;18065;55.876;9.830;2023-07-31T05:19:40;2.50;;;0.95;;
31442;SDS011;18065;55.876;9.830;2023-07-31T05:22:08;4.78;;;1.00;;
31442;SDS011;18065;55.876;9.830;2023-07-31T05:24:37;3.58;;;1.00;;
31442;SDS011;18065;55.876;9.830;2023-07-31T05:27:06;6.22;;;1.65;;
31442;SDS011;18065;55.876;9.830;2023-07-31T05:29:38;2.70;;;0.90;;
31442;SDS011;18065;55.876;9.830;2023-07-31T05:32:08;4.97;;;1.08;;
31442;SDS011;18065;55.876;9.830;2023-07-31T05:34:37;5.43;;;1.38;;
31442;SDS011;18065;55.876;9.830;2023-07-31T05:37:06;3.90;;;1.25;;
31442;SDS011;18065;55.876;9.830;2023-07-31T05:39:34;3.63;;;1.25;;
31442;SDS011;18065;55.876;9.830;2023-07-31T05:42:04;5.70;;;1.17;;
31442;SDS011;18065;55.876;9.830;2023-07-31T05:44:33;5.90;;;1.13;;
31442;SDS011;18065;55.876;9.830;2023-07-31T05:47:05;3.13;;;0.77;;
31442;SDS011;18065;55.876;9.830;2023-07-31T05:49:34;5.97;;;1.30;;
31442;SDS011;18065;55.876;9.830;2023-07-31T05:52:03;4.70;;;1.10;;
31442;SDS011;18065;55.876;9.830;2023-07-31T05:54:32;6.22;;;1.20;;
31442;SDS011;18065;55.876;9.830;2023-07-31T05:57:01;3.80;;;1.00;;
31442;SDS011;18065;55.876;9.830;2023-07-31T05:59:29;3.40;;;1.38;;
31442;SDS011;18065;55.876;9.830;2023-07-31T06:01:59;2.72;;;1.08;;
31442;SDS011;18065;55.876;9.830;2023-07-31T06:04:30;3.58;;;1.35;;
31442;SDS011;18065;55.876;9.830;2023-07-31T06:06:59;3.08;;;1.38;;
31442;SDS011;18065;55.876;9.830;2023-07-31T06:09:28;5.32;;;1.15;;
31442;SDS011;18065;55.876;9.830;2023-07-31T06:11:57;3.90;;;1.42;;
31442;SDS011;18065;55.876;9.830;2023-07-31T06:14:26;9.40;;;1.55;;
31442;SDS011;18065;55.876;9.830;2023-07-31T06:16:55;4.13;;;1.35;;
31442;SDS011;18065;55.876;9.830;2023-07-31T06:19:24;4.88;;;1.00;;
31442;SDS011;18065;55.876;9.830;2023-07-31T06:21:55;4.20;;;0.90;;
31442;SDS011;18065;55.876;9.830;2023-07-31T06:24:23;2.80;;;1.13;;
31442;SDS011;18065;55.876;9.830;2023-07-31T06:26:52;3.35;;;1.13;;
31442;SDS011;18065;55.876;9.830;2023-07-31T06:29:22;3.53;;;1.10;;
31442;SDS011;18065;55.876;9.830;2023-07-31T06:31:51;3.65;;;0.95;;
31442;SDS011;18065;55.876;9.830;2023-07-31T06:34:20;3.58;;;1.02;;
31442;SDS011;18065;55.876;9.830;2023-07-31T06:36:48;3.42;;;1.20;;
31442;SDS011;18065;55.876;9.830;2023-07-31T06:39:20;3.30;;;0.88;;
31442;SDS011;18065;55.876;9.830;2023-07-31T06:41:48;8.00;;;1.13;;
31442;SDS011;18065;55.876;9.830;2023-07-31T06:44:17;2.75;;;1.05;;
31442;SDS011;18065;55.876;9.830;2023-07-31T06:46:46;5.03;;;1.33;;
31442;SDS011;18065;55.876;9.830;2023-07-31T06:49:14;3.08;;;1.25;;
31442;SDS011;18065;55.876;9.830;2023-07-31T06:51:43;5.18;;;1.50;;
31442;SDS011;18065;55.876;9.830;2023-07-31T06:54:12;4.10;;;1.38;;
31442;SDS011;18065;55.876;9.830;2023-07-31T06:56:43;4.22;;;1.45;;
31442;SDS011;18065;55.876;9.830;2023-07-31T06:59:12;3.97;;;1.45;;
31442;SDS011;18065;55.876;9.830;2023-07-31T07:01:40;4.78;;;1.15;;
31442;SDS011;18065;55.876;9.830;2023-07-31T07:04:09;4.05;;;1.20;;
31442;SDS011;18065;55.876;9.830;2023-07-31T07:06:38;4.75;;;1.30;;
31442;SDS011;18065;55.876;9.830;2023-07-31T07:09:07;7.20;;;1.50;;
31442;SDS011;18065;55.876;9.830;2023-07-31T07:11:36;6.40;;;1.30;;
31442;SDS011;18065;55.876;9.830;2023-07-31T07:14:08;5.07;;;1.50;;
31442;SDS011;18065;55.876;9.830;2023-07-31T07:16:36;7.68;;;1.85;;
31442;SDS011;18065;55.876;9.830;2023-07-31T07:19:06;5.30;;;1.70;;
31442;SDS011;18065;55.876;9.830;2023-07-31T07:21:34;7.93;;;2.13;;
31442;SDS011;18065;55.876;9.830;2023-07-31T07:24:03;7.05;;;1.48;;
31442;SDS011;18065;55.876;9.830;2023-07-31T07:26:32;4.45;;;1.50;;
31442;SDS011;18065;55.876;9.830;2023-07-31T07:29:01;4.72;;;1.38;;
31442;SDS011;18065;55.876;9.830;2023-07-31T07:31:35;6.90;;;1.38;;
31442;SDS011;18065;55.876;9.830;2023-07-31T07:34:04;6.10;;;1.60;;
31442;SDS011;18065;55.876;9.830;2023-07-31T07:36:33;5.57;;;1.60;;
31442;SDS011;18065;55.876;9.830;2023-07-31T07:39:02;5.88;;;1.63;;
31442;SDS011;18065;55.876;9.830;2023-07-31T07:41:31;7.25;;;1.80;;
31442;SDS011;18065;55.876;9.830;2023-07-31T07:44:00;8.35;;;1.65;;
31442;SDS011;18065;55.876;9.830;2023-07-31T07:46:28;6.68;;;1.70;;
31442;SDS011;18065;55.876;9.830;2023-07-31T07:49:00;6.40;;;1.40;;
31442;SDS011;18065;55.876;9.830;2023-07-31T07:51:28;5.15;;;1.48;;
31442;SDS011;18065;55.876;9.830;2023-07-31T07:53:58;4.28;;;1.58;;
31442;SDS011;18065;55.876;9.830;2023-07-31T07:56:27;5.93;;;1.33;;
31442;SDS011;18065;55.876;9.830;2023-07-31T07:58:55;4.72;;;1.23;;
31442;SDS011;18065;55.876;9.830;2023-07-31T08:01:24;4.63;;;1.45;;
31442;SDS011;18065;55.876;9.830;2023-07-31T08:03:53;8.68;;;1.85;;
31442;SDS011;18065;55.876;9.830;2023-07-31T08:06:24;6.43;;;1.45;;
31442;SDS011;18065;55.876;9.830;2023-07-31T08:08:54;4.60;;;1.40;;
31442;SDS011;18065;55.876;9.830;2023-07-31T08:11:23;2.70;;;1.00;;
31442;SDS011;18065;55.876;9.830;2023-07-31T08:13:52;5.00;;;1.58;;
31442;SDS011;18065;55.876;9.830;2023-07-31T08:16:21;7.50;;;2.25;;
31442;SDS011;18065;55.876;9.830;2023-07-31T08:18:49;4.07;;;1.38;;
31442;SDS011;18065;55.876;9.830;2023-07-31T08:21:18;4.65;;;1.70;;
31442;SDS011;18065;55.876;9.830;2023-07-31T08:23:49;7.57;;;1.55;;
31442;SDS011;18065;55.876;9.830;2023-07-31T08:26:18;5.18;;;1.20;;
31442;SDS011;18065;55.876;9.830;2023-07-31T08:28:48;4.90;;;1.50;;
31442;SDS011;18065;55.876;9.830;2023-07-31T08:31:17;3.35;;;1.30;;
31442;SDS011;18065;55.876;9.830;2023-07-31T08:33:45;4.72;;;1.23;;
31442;SDS011;18065;55.876;9.830;2023-07-31T08:36:14;2.60;;;0.90;;
31442;SDS011;18065;55.876;9.830;2023-07-31T08:38:43;6.10;;;1.42;;
31442;SDS011;18065;55.876;9.830;2023-07-31T08:41:16;4.03;;;1.00;;
31442;SDS011;18065;55.876;9.830;2023-07-31T08:43:45;2.50;;;1.20;;
31442;SDS011;18065;55.876;9.830;2023-07-31T08:46:14;4.65;;;1.15;;
31442;SDS011;18065;55.876;9.830;2023-07-31T08:48:43;2.65;;;1.00;;
31442;SDS011;18065;55.876;9.830;2023-07-31T08:51:13;5.78;;;1.33;;
31442;SDS011;18065;55.876;9.830;2023-07-31T08:53:42;7.00;;;1.20;;
31442;SDS011;18065;55.876;9.830;2023-07-31T08:56:11;3.25;;;1.05;;
31442;SDS011;18065;55.876;9.830;2023-07-31T08:58:45;4.10;;;1.10;;
31442;SDS011;18065;55.876;9.830;2023-07-31T09:01:15;3.30;;;0.90;;
31442;SDS011;18065;55.876;9.830;2023-07-31T09:03:45;3.95;;;1.30;;
31442;SDS011;18065;55.876;9.830;2023-07-31T09:06:15;4.07;;;1.10;;
31442;SDS011;18065;55.876;9.830;2023-07-31T09:08:47;6.40;;;1.17;;
31442;SDS011;18065;55.876;9.830;2023-07-31T09:11:17;3.63;;;1.17;;
31442;SDS011;18065;55.876;9.830;2023-07-31T09:13:49;2.42;;;0.90;;
31442;SDS011;18065;55.876;9.830;2023-07-31T09:16:18;3.67;;;1.20;;
31442;SDS011;18065;55.876;9.830;2023-07-31T09:18:56;3.97;;;1.40;;
31442;SDS011;18065;55.876;9.830;2023-07-31T09:21:27;4.75;;;1.33;;
31442;SDS011;18065;55.876;9.830;2023-07-31T09:23:55;3.47;;;1.20;;
31442;SDS011;18065;55.876;9.830;2023-07-31T09:26:30;6.30;;;1.80;;
31442;SDS011;18065;55.876;9.830;2023-07-31T09:29:03;7.00;;;1.65;;
31442;SDS011;18065;55.876;9.830;2023-07-31T09:31:33;8.07;;;1.70;;
31442;SDS011;18065;55.876;9.830;2023-07-31T09:34:08;6.47;;;1.45;;
31442;SDS011;18065;55.876;9.830;2023-07-31T09:36:41;5.90;;;1.92;;
31442;SDS011;18065;55.876;9.830;2023-07-31T09:39:11;6.13;;;1.92;;
31442;SDS011;18065;55.876;9.830;2023-07-31T09:41:41;7.47;;;2.08;;
31442;SDS011;18065;55.876;9.830;2023-07-31T09:44:14;5.20;;;1.38;;
31442;SDS011;18065;55.876;9.830;2023-07-31T09:46:43;5.47;;;1.75;;
31442;SDS011;18065;55.876;9.830;2023-07-31T09:49:12;9.70;;;1.67;;
31442;SDS011;18065;55.876;9.830;2023-07-31T09:51:42;4.90;;;1.77;;
31442;SDS011;18065;55.876;9.830;2023-07-31T09:54:11;6.68;;;1.10;;
31442;SDS011;18065;55.876;9.830;2023-07-31T09:56:41;3.35;;;1.30;;
31442;SDS011;18065;55.876;9.830;2023-07-31T09:59:14;4.13;;;1.40;;
31442;SDS011;18065;55.876;9.830;2023-07-31T10:01:45;4.77;;;1.20;;
31442;SDS011;18065;55.876;9.830;2023-07-31T10:04:14;5.35;;;1.50;;
31442;SDS011;18065;55.876;9.830;2023-07-31T10:06:48;3.95;;;0.93;;
31442;SDS011;18065;55.876;9.830;2023-07-31T10:09:18;4.63;;;1.20;;
31442;SDS011;18065;55.876;9.830;2023-07-31T10:11:51;3.13;;;1.20;;
31442;SDS011;18065;55.876;9.830;2023-07-31T10:14:30;4.97;;;0.98;;
31442;SDS011;18065;55.876;9.830;2023-07-31T10:16:59;4.95;;;1.35;;
31442;SDS011;18065;55.876;9.830;2023-07-31T10:19:28;4.43;;;1.08;;
31442;SDS011;18065;55.876;9.830;2023-07-31T10:21:59;3.55;;;0.93;;
31442;SDS011;18065;55.876;9.830;2023-07-31T10:24:28;4.35;;;1.50;;
31442;SDS011;18065;55.876;9.830;2023-07-31T10:26:58;3.13;;;0.85;;
31442;SDS011;18065;55.876;9.830;2023-07-31T10:29:32;6.28;;;1.15;;
31442;SDS011;18065;55.876;9.830;2023-07-31T10:32:01;3.65;;;1.02;;
31442;SDS011;18065;55.876;9.830;2023-07-31T10:34:31;3.38;;;0.98;;
31442;SDS011;18065;55.876;9.830;2023-07-31T10:39:59;3.78;;;0.70;;
31442;SDS011;18065;55.876;9.830;2023-07-31T10:42:29;3.50;;;0.88;;
31442;SDS011;18065;55.876;9.830;2023-07-31T10:45:02;3.60;;;0.65;;
31442;SDS011;18065;55.876;9.830;2023-07-31T10:47:36;2.33;;;0.80;;
31442;SDS011;18065;55.876;9.830;2023-07-31T10:50:12;3.80;;;0.70;;
31442;SDS011;18065;55.876;9.830;2023-07-31T10:52:46;2.55;;;0.80;;
31442;SDS011;18065;55.876;9.830;2023-07-31T10:55:24;2.00;;;0.73;;
31442;SDS011;18065;55.876;9.830;2023-07-31T10:58:05;2.63;;;0.57;;
31442;SDS011;18065;55.876;9.830;2023-07-31T11:00:39;1.73;;;0.55;;
31442;SDS011;18065;55.876;9.830;2023-07-31T11:03:10;1.55;;;0.55;;
31442;SDS011;18065;55.876;9.830;2023-07-31T11:05:46;0.98;;;0.50;;
31442;SDS011;18065;55.876;9.830;2023-07-31T11:08:17;2.78;;;0.60;;
31442;SDS011;18065;55.876;9.830;2023-07-31T11:10:48;3.63;;;0.60;;
31442;SDS011;18065;55.876;9.830;2023-07-31T11:13:20;2.73;;;0.63;;
31442;SDS011;18065;55.876;9.830;2023-07-31T11:15:51;2.67;;;0.60;;
31442;SDS011;18065;55.876;9.830;2023-07-31T11:18:20;1.42;;;0.70;;
31442;SDS011;18065;55.876;9.830;2023-07-31T11:20:48;1.70;;;0.40;;
31442;SDS011;18065;55.876;9.830;2023-07-31T11:23:17;1.48;;;0.50;;
31442;SDS011;18065;55.876;9.830;2023-07-31T11:25:47;1.95;;;0.50;;
31442;SDS011;18065;55.876;9.830;2023-07-31T11:28:17;1.35;;;0.60;;
31442;SDS011;18065;55.876;9.830;2023-07-31T11:30:46;2.25;;;0.60;;
31442;SDS011;18065;55.876;9.830;2023-07-31T11:33:18;1.90;;;0.45;;
31442;SDS011;18065;55.876;9.830;2023-07-31T11:35:47;2.40;;;0.57;;
31442;SDS011;18065;55.876;9.830;2023-07-31T11:38:23;1.77;;;0.60;;
31442;SDS011;18065;55.876;9.830;2023-07-31T11:40:52;2.03;;;0.68;;
31442;SDS011;18065;55.876;9.830;2023-07-31T11:43:21;1.42;;;0.40;;
31442;SDS011;18065;55.876;9.830;2023-07-31T11:45:52;2.22;;;0.77;;
31442;SDS011;18065;55.876;9.830;2023-07-31T11:48:27;3.53;;;0.50;;
31442;SDS011;18065;55.876;9.830;2023-07-31T11:50:59;3.47;;;0.68;;
31442;SDS011;18065;55.876;9.830;2023-07-31T11:53:29;2.97;;;0.50;;
31442;SDS011;18065;55.876;9.830;2023-07-31T11:56:01;2.10;;;0.50;;
31442;SDS011;18065;55.876;9.830;2023-07-31T11:58:31;2.30;;;0.60;;
31442;SDS011;18065;55.876;9.830;2023-07-31T12:01:01;1.40;;;0.40;;
31442;SDS011;18065;55.876;9.830;2023-07-31T12:03:33;1.85;;;0.40;;
31442;SDS011;18065;55.876;9.830;2023-07-31T12:06:02;2.78;;;0.60;;
31442;SDS011;18065;55.876;9.830;2023-07-31T12:08:31;1.25;;;0.50;;
31442;SDS011;18065;55.876;9.830;2023-07-31T12:11:02;2.45;;;0.45;;
31442;SDS011;18065;55.876;9.830;2023-07-31T12:13:32;1.75;;;0.52;;
31442;SDS011;18065;55.876;9.830;2023-07-31T12:16:02;1.35;;;0.45;;
31442;SDS011;18065;55.876;9.830;2023-07-31T12:18:36;2.22;;;0.60;;
31442;SDS011;18065;55.876;9.830;2023-07-31T12:21:06;3.78;;;0.57;;
31442;SDS011;18065;55.876;9.830;2023-07-31T12:23:36;1.52;;;0.57;;
31442;SDS011;18065;55.876;9.830;2023-07-31T12:26:08;3.15;;;0.70;;
31442;SDS011;18065;55.876;9.830;2023-07-31T12:28:40;3.38;;;0.60;;
31442;SDS011;18065;55.876;9.830;2023-07-31T12:31:09;1.13;;;0.50;;
31442;SDS011;18065;55.876;9.830;2023-07-31T12:33:42;1.65;;;0.47;;
31442;SDS011;18065;55.876;9.830;2023-07-31T12:36:11;1.25;;;0.47;;
31442;SDS011;18065;55.876;9.830;2023-07-31T12:38:40;2.33;;;0.70;;
31442;SDS011;18065;55.876;9.830;2023-07-31T12:41:10;1.35;;;0.45;;
31442;SDS011;18065;55.876;9.830;2023-07-31T12:43:40;2.88;;;0.63;;
31442;SDS011;18065;55.876;9.830;2023-07-31T12:46:09;1.58;;;0.60;;
31442;SDS011;18065;55.876;9.830;2023-07-31T12:48:38;0.70;;;0.40;;
31442;SDS011;18065;55.876;9.830;2023-07-31T12:51:10;1.23;;;0.32;;
31442;SDS011;18065;55.876;9.830;2023-07-31T12:53:39;3.83;;;0.55;;
31442;SDS011;18065;55.876;9.830;2023-07-31T12:56:07;1.88;;;0.50;;
31442;SDS011;18065;55.876;9.830;2023-07-31T12:58:36;2.20;;;0.60;;
31442;SDS011;18065;55.876;9.830;2023-07-31T13:01:05;3.08;;;0.50;;
31442;SDS011;18065;55.876;9.830;2023-07-31T13:03:33;1.98;;;0.52;;
31442;SDS011;18065;55.876;9.830;2023-07-31T13:06:05;2.08;;;0.60;;
31442;SDS011;18065;55.876;9.830;2023-07-31T13:08:34;1.10;;;0.50;;
31442;SDS011;18065;55.876;9.830;2023-07-31T13:11:02;1.88;;;0.45;;
31442;SDS011;18065;55.876;9.830;2023-07-31T13:13:31;1.92;;;0.43;;
31442;SDS011;18065;55.876;9.830;2023-07-31T13:16:00;0.52;;;0.30;;
31442;SDS011;18065;55.876;9.830;2023-07-31T13:18:28;3.13;;;0.65;;
31442;SDS011;18065;55.876;9.830;2023-07-31T13:20:57;1.23;;;0.40;;
31442;SDS011;18065;55.876;9.830;2023-07-31T13:23:28;0.95;;;0.50;;
31442;SDS011;18065;55.876;9.830;2023-07-31T13:25:57;3.03;;;0.50;;
31442;SDS011;18065;55.876;9.830;2023-07-31T13:28:26;3.85;;;0.60;;
31442;SDS011;18065;55.876;9.830;2023-07-31T13:30:54;3.58;;;0.75;;
31442;SDS011;18065;55.876;9.830;2023-07-31T13:33:23;1.40;;;0.50;;
31442;SDS011;18065;55.876;9.830;2023-07-31T13:35:51;1.17;;;0.47;;
31442;SDS011;18065;55.876;9.830;2023-07-31T13:38:20;2.13;;;0.50;;
31442;SDS011;18065;55.876;9.830;2023-07-31T13:40:51;3.00;;;0.60;;
31442;SDS011;18065;55.876;9.830;2023-07-31T13:43:21;1.65;;;0.57;;
31442;SDS011;18065;55.876;9.830;2023-07-31T13:45:50;5.97;;;0.75;;
31442;SDS011;18065;55.876;9.830;2023-07-31T13:48:19;1.67;;;0.32;;
31442;SDS011;18065;55.876;9.830;2023-07-31T13:50:47;2.88;;;0.50;;
31442;SDS011;18065;55.876;9.830;2023-07-31T13:53:16;2.03;;;0.50;;
31442;SDS011;18065;55.876;9.830;2023-07-31T13:55:45;2.45;;;0.45;;
31442;SDS011;18065;55.876;9.830;2023-07-31T13:58:17;3.08;;;0.68;;
31442;SDS011;18065;55.876;9.830;2023-07-31T14:00:46;2.67;;;0.52;;
31442;SDS011;18065;55.876;9.830;2023-07-31T14:03:14;1.08;;;0.40;;
31442;SDS011;18065;55.876;9.830;2023-07-31T14:05:43;2.40;;;0.80;;
31442;SDS011;18065;55.876;9.830;2023-07-31T14:08:12;2.22;;;0.70;;
31442;SDS011;18065;55.876;9.830;2023-07-31T14:10:40;2.72;;;0.60;;
31442;SDS011;18065;55.876;9.830;2023-07-31T14:13:09;4.75;;;0.70;;
31442;SDS011;18065;55.876;9.830;2023-07-31T14:15:41;1.88;;;0.68;;
31442;SDS011;18065;55.876;9.830;2023-07-31T14:18:10;2.08;;;0.60;;
31442;SDS011;18065;55.876;9.830;2023-07-31T14:20:39;0.98;;;0.50;;
31442;SDS011;18065;55.876;9.830;2023-07-31T14:23:07;1.67;;;0.70;;
31442;SDS011;18065;55.876;9.830;2023-07-31T14:25:36;2.47;;;0.70;;
31442;SDS011;18065;55.876;9.830;2023-07-31T14:28:05;1.73;;;0.52;;
31442;SDS011;18065;55.876;9.830;2023-07-31T14:30:33;2.17;;;0.60;;
31442;SDS011;18065;55.876;9.830;2023-07-31T14:33:05;2.17;;;0.52;;
31442;SDS011;18065;55.876;9.830;2023-07-31T14:35:33;1.95;;;0.45;;
31442;SDS011;18065;55.876;9.830;2023-07-31T14:38:02;1.83;;;0.60;;
31442;SDS011;18065;55.876;9.830;2023-07-31T14:40:32;2.97;;;0.60;;
31442;SDS011;18065;55.876;9.830;2023-07-31T14:43:01;2.22;;;0.55;;
31442;SDS011;18065;55.876;9.830;2023-07-31T14:45:30;1.15;;;0.40;;
31442;SDS011;18065;55.876;9.830;2023-07-31T14:47:59;2.70;;;0.65;;
31442;SDS011;18065;55.876;9.830;2023-07-31T14:50:30;1.27;;;0.47;;
31442;SDS011;18065;55.876;9.830;2023-07-31T14:52:59;1.45;;;0.50;;
31442;SDS011;18065;55.876;9.830;2023-07-31T14:55:28;1.25;;;0.45;;
31442;SDS011;18065;55.876;9.830;2023-07-31T14:57:56;1.10;;;0.47;;
31442;SDS011;18065;55.876;9.830;2023-07-31T15:00:25;1.20;;;0.50;;
31442;SDS011;18065;55.876;9.830;2023-07-31T15:02:54;1.20;;;0.50;;
31442;SDS011;18065;55.876;9.830;2023-07-31T15:05:22;2.70;;;0.60;;
31442;SDS011;18065;55.876;9.830;2023-07-31T15:07:54;1.60;;;0.60;;